sensor_id;sensor_type;location;lat;lon;timestamp;P1;durP1;ratioP1;P2;durP2;ratioP2
41255;SDS011;26989;45.524;10.938;2022-07-23T00:00:13;8.63;;;6.70;;
41255;SDS011;26989;45.524;10.938;2022-07-23T00:02:41;9.68;;;5.93;;
41255;SDS011;26989;45.524;10.938;2022-07-23T00:05:09;6.55;;;5.78;;
41255;SDS011;26989;45.524;10.938;2022-07-23T00:07:36;6.60;;;5.90;;
41255;SDS011;26989;45.524;10.938;2022-07-23T00:10:04;7.55;;;5.68;;
41255;SDS011;26989;45.524;10.938;2022-07-23T00:12:31;9.27;;;6.07;;
41255;SDS011;26989;45.524;10.938;2022-07-23T00:14:58;7.72;;;5.72;;
41255;SDS011;26989;45.524;10.938;2022-07-23T00:17:25;8.80;;;6.28;;
41255;SDS011;26989;45.524;10.938;2022-07-23T00:19:52;7.72;;;5.63;;
41255;SDS011;26989;45.524;10.938;2022-07-23T00:22:20;7.78;;;5.95;;
41255;SDS011;26989;45.524;10.938;2022-07-23T00:24:47;8.10;;;5.97;;
41255;SDS011;26989;45.524;10.938;2022-07-23T00:27:34;10.02;;;6.38;;
41255;SDS011;26989;45.524;10.938;2022-07-23T00:30:00;7.50;;;5.95;;
41255;SDS011;26989;45.524;10.938;2022-07-23T00:32:27;7.10;;;5.45;;
41255;SDS011;26989;45.524;10.938;2022-07-23T00:35:14;6.53;;;5.75;;
41255;SDS011;26989;45.524;10.938;2022-07-23T00:37:42;9.35;;;6.57;;
41255;SDS011;26989;45.524;10.938;2022-07-23T00:40:09;9.70;;;6.90;;
41255;SDS011;26989;45.524;10.938;2022-07-23T00:42:36;10.70;;;6.50;;
41255;SDS011;26989;45.524;10.938;2022-07-23T00:45:04;9.70;;;6.53;;
41255;SDS011;26989;45.524;10.938;2022-07-23T00:47:31;7.10;;;6.40;;
41255;SDS011;26989;45.524;10.938;2022-07-23T00:49:58;9.55;;;6.20;;
41255;SDS011;26989;45.524;10.938;2022-07-23T00:52:26;8.20;;;6.05;;
41255;SDS011;26989;45.524;10.938;2022-07-23T00:54:53;11.15;;;6.10;;
41255;SDS011;26989;45.524;10.938;2022-07-23T00:57:19;9.32;;;6.45;;
41255;SDS011;26989;45.524;10.938;2022-07-23T00:59:53;10.75;;;6.05;;
41255;SDS011;26989;45.524;10.938;2022-07-23T01:02:20;6.65;;;5.80;;
41255;SDS011;26989;45.524;10.938;2022-07-23T01:04:47;8.50;;;5.97;;
41255;SDS011;26989;45.524;10.938;2022-07-23T01:07:15;9.82;;;6.45;;
41255;SDS011;26989;45.524;10.938;2022-07-23T01:09:43;7.82;;;6.25;;
41255;SDS011;26989;45.524;10.938;2022-07-23T01:12:11;7.40;;;5.90;;
41255;SDS011;26989;45.524;10.938;2022-07-23T01:14:38;8.40;;;6.32;;
41255;SDS011;26989;45.524;10.938;2022-07-23T01:17:05;10.60;;;6.05;;
41255;SDS011;26989;45.524;10.938;2022-07-23T01:19:32;9.02;;;5.38;;
41255;SDS011;26989;45.524;10.938;2022-07-23T01:22:00;7.85;;;5.40;;
41255;SDS011;26989;45.524;10.938;2022-07-23T01:24:28;11.38;;;5.78;;
41255;SDS011;26989;45.524;10.938;2022-07-23T01:26:56;6.90;;;5.57;;
41255;SDS011;26989;45.524;10.938;2022-07-23T01:29:22;11.55;;;5.55;;
41255;SDS011;26989;45.524;10.938;2022-07-23T01:31:49;10.52;;;5.80;;
41255;SDS011;26989;45.524;10.938;2022-07-23T01:34:16;8.38;;;6.18;;
41255;SDS011;26989;45.524;10.938;2022-07-23T01:36:43;7.75;;;5.72;;
41255;SDS011;26989;45.524;10.938;2022-07-23T01:39:11;9.90;;;6.07;;
41255;SDS011;26989;45.524;10.938;2022-07-23T01:41:38;6.78;;;5.88;;
41255;SDS011;26989;45.524;10.938;2022-07-23T01:44:05;8.30;;;6.30;;
41255;SDS011;26989;45.524;10.938;2022-07-23T01:46:32;9.25;;;6.07;;
41255;SDS011;26989;45.524;10.938;2022-07-23T01:48:59;9.10;;;5.93;;
41255;SDS011;26989;45.524;10.938;2022-07-23T01:51:26;7.90;;;6.15;;
41255;SDS011;26989;45.524;10.938;2022-07-23T01:53:53;7.38;;;5.60;;
41255;SDS011;26989;45.524;10.938;2022-07-23T01:56:20;8.43;;;6.05;;
41255;SDS011;26989;45.524;10.938;2022-07-23T01:58:47;9.77;;;6.50;;
41255;SDS011;26989;45.524;10.938;2022-07-23T02:01:15;7.25;;;6.25;;
41255;SDS011;26989;45.524;10.938;2022-07-23T02:03:42;6.65;;;5.95;;
41255;SDS011;26989;45.524;10.938;2022-07-23T02:06:09;7.10;;;5.93;;
41255;SDS011;26989;45.524;10.938;2022-07-23T02:08:35;9.30;;;6.15;;
41255;SDS011;26989;45.524;10.938;2022-07-23T02:11:02;8.27;;;6.05;;
41255;SDS011;26989;45.524;10.938;2022-07-23T02:13:29;7.35;;;6.47;;
41255;SDS011;26989;45.524;10.938;2022-07-23T02:15:59;7.45;;;5.40;;
41255;SDS011;26989;45.524;10.938;2022-07-23T02:18:26;6.90;;;6.05;;
41255;SDS011;26989;45.524;10.938;2022-07-23T02:20:53;10.63;;;6.20;;
41255;SDS011;26989;45.524;10.938;2022-07-23T02:23:20;7.18;;;6.30;;
41255;SDS011;26989;45.524;10.938;2022-07-23T02:25:47;6.53;;;5.82;;
41255;SDS011;26989;45.524;10.938;2022-07-23T02:28:14;8.32;;;6.20;;
41255;SDS011;26989;45.524;10.938;2022-07-23T02:30:41;7.63;;;6.15;;
41255;SDS011;26989;45.524;10.938;2022-07-23T02:33:08;7.18;;;6.38;;
41255;SDS011;26989;45.524;10.938;2022-07-23T02:35:35;9.23;;;6.50;;
41255;SDS011;26989;45.524;10.938;2022-07-23T02:38:02;7.20;;;6.30;;
41255;SDS011;26989;45.524;10.938;2022-07-23T02:40:29;7.35;;;5.72;;
41255;SDS011;26989;45.524;10.938;2022-07-23T02:42:56;7.93;;;5.85;;
41255;SDS011;26989;45.524;10.938;2022-07-23T02:45:23;8.95;;;6.30;;
41255;SDS011;26989;45.524;10.938;2022-07-23T02:47:49;8.20;;;5.80;;
41255;SDS011;26989;45.524;10.938;2022-07-23T02:50:16;7.80;;;5.80;;
41255;SDS011;26989;45.524;10.938;2022-07-23T02:52:43;11.40;;;6.25;;
41255;SDS011;26989;45.524;10.938;2022-07-23T02:55:10;11.60;;;5.57;;
41255;SDS011;26989;45.524;10.938;2022-07-23T02:57:37;8.57;;;6.43;;
41255;SDS011;26989;45.524;10.938;2022-07-23T03:00:04;9.73;;;6.15;;
41255;SDS011;26989;45.524;10.938;2022-07-23T03:02:32;8.82;;;6.28;;
41255;SDS011;26989;45.524;10.938;2022-07-23T03:04:59;6.93;;;6.20;;
41255;SDS011;26989;45.524;10.938;2022-07-23T03:07:26;7.72;;;5.68;;
41255;SDS011;26989;45.524;10.938;2022-07-23T03:09:53;7.85;;;6.07;;
41255;SDS011;26989;45.524;10.938;2022-07-23T03:12:20;9.50;;;6.20;;
41255;SDS011;26989;45.524;10.938;2022-07-23T03:14:47;14.27;;;6.20;;
41255;SDS011;26989;45.524;10.938;2022-07-23T03:17:14;10.63;;;5.60;;
41255;SDS011;26989;45.524;10.938;2022-07-23T03:19:40;8.38;;;5.78;;
41255;SDS011;26989;45.524;10.938;2022-07-23T03:22:07;7.90;;;5.70;;
41255;SDS011;26989;45.524;10.938;2022-07-23T03:24:34;5.85;;;5.25;;
41255;SDS011;26989;45.524;10.938;2022-07-23T03:27:24;8.20;;;5.55;;
41255;SDS011;26989;45.524;10.938;2022-07-23T03:29:53;8.82;;;5.70;;
41255;SDS011;26989;45.524;10.938;2022-07-23T03:32:23;9.95;;;5.80;;
41255;SDS011;26989;45.524;10.938;2022-07-23T03:34:51;8.73;;;5.25;;
41255;SDS011;26989;45.524;10.938;2022-07-23T03:37:19;6.93;;;5.80;;
41255;SDS011;26989;45.524;10.938;2022-07-23T03:39:47;12.73;;;5.47;;
41255;SDS011;26989;45.524;10.938;2022-07-23T03:42:14;7.68;;;5.55;;
41255;SDS011;26989;45.524;10.938;2022-07-23T03:44:41;12.07;;;5.55;;
41255;SDS011;26989;45.524;10.938;2022-07-23T03:47:07;11.93;;;6.35;;
41255;SDS011;26989;45.524;10.938;2022-07-23T03:49:34;9.00;;;5.68;;
41255;SDS011;26989;45.524;10.938;2022-07-23T03:52:01;17.55;;;6.18;;
41255;SDS011;26989;45.524;10.938;2022-07-23T03:54:28;16.40;;;6.03;;
41255;SDS011;26989;45.524;10.938;2022-07-23T03:56:55;14.57;;;5.63;;
41255;SDS011;26989;45.524;10.938;2022-07-23T03:59:22;19.25;;;5.45;;
41255;SDS011;26989;45.524;10.938;2022-07-23T04:01:49;9.48;;;5.45;;
41255;SDS011;26989;45.524;10.938;2022-07-23T04:04:17;9.80;;;5.90;;
41255;SDS011;26989;45.524;10.938;2022-07-23T04:06:44;14.82;;;5.68;;
41255;SDS011;26989;45.524;10.938;2022-07-23T04:09:11;9.25;;;5.53;;
41255;SDS011;26989;45.524;10.938;2022-07-23T04:11:38;8.38;;;4.80;;
41255;SDS011;26989;45.524;10.938;2022-07-23T04:14:05;12.18;;;5.07;;
41255;SDS011;26989;45.524;10.938;2022-07-23T04:16:32;15.23;;;6.10;;
41255;SDS011;26989;45.524;10.938;2022-07-23T04:18:59;16.27;;;5.88;;
41255;SDS011;26989;45.524;10.938;2022-07-23T04:21:26;17.42;;;6.20;;
41255;SDS011;26989;45.524;10.938;2022-07-23T04:23:53;9.70;;;5.70;;
41255;SDS011;26989;45.524;10.938;2022-07-23T04:26:20;13.68;;;5.93;;
41255;SDS011;26989;45.524;10.938;2022-07-23T04:28:47;14.25;;;6.13;;
41255;SDS011;26989;45.524;10.938;2022-07-23T04:31:14;13.32;;;5.90;;
41255;SDS011;26989;45.524;10.938;2022-07-23T04:33:41;6.88;;;5.47;;
41255;SDS011;26989;45.524;10.938;2022-07-23T04:36:08;12.65;;;6.00;;
41255;SDS011;26989;45.524;10.938;2022-07-23T04:38:35;18.17;;;6.60;;
41255;SDS011;26989;45.524;10.938;2022-07-23T04:41:01;21.48;;;5.88;;
41255;SDS011;26989;45.524;10.938;2022-07-23T04:43:28;19.67;;;6.75;;
41255;SDS011;26989;45.524;10.938;2022-07-23T04:45:55;18.98;;;6.95;;
41255;SDS011;26989;45.524;10.938;2022-07-23T04:48:22;20.08;;;6.70;;
41255;SDS011;26989;45.524;10.938;2022-07-23T04:50:49;18.40;;;6.47;;
41255;SDS011;26989;45.524;10.938;2022-07-23T04:53:16;23.20;;;6.65;;
41255;SDS011;26989;45.524;10.938;2022-07-23T04:55:44;16.45;;;6.30;;
41255;SDS011;26989;45.524;10.938;2022-07-23T04:58:11;17.08;;;6.13;;
41255;SDS011;26989;45.524;10.938;2022-07-23T05:00:38;13.43;;;6.70;;
41255;SDS011;26989;45.524;10.938;2022-07-23T05:03:05;16.50;;;5.88;;
41255;SDS011;26989;45.524;10.938;2022-07-23T05:05:32;9.98;;;5.50;;
41255;SDS011;26989;45.524;10.938;2022-07-23T05:07:59;17.30;;;6.05;;
41255;SDS011;26989;45.524;10.938;2022-07-23T05:10:26;16.92;;;6.50;;
41255;SDS011;26989;45.524;10.938;2022-07-23T05:12:52;16.63;;;6.80;;
41255;SDS011;26989;45.524;10.938;2022-07-23T05:15:19;15.05;;;5.90;;
41255;SDS011;26989;45.524;10.938;2022-07-23T05:17:46;16.50;;;6.18;;
41255;SDS011;26989;45.524;10.938;2022-07-23T05:20:13;18.02;;;5.93;;
41255;SDS011;26989;45.524;10.938;2022-07-23T05:22:40;17.92;;;6.07;;
41255;SDS011;26989;45.524;10.938;2022-07-23T05:25:07;16.40;;;5.10;;
41255;SDS011;26989;45.524;10.938;2022-07-23T05:27:34;12.15;;;4.93;;
41255;SDS011;26989;45.524;10.938;2022-07-23T05:30:01;14.48;;;5.07;;
41255;SDS011;26989;45.524;10.938;2022-07-23T05:32:31;10.43;;;4.93;;
41255;SDS011;26989;45.524;10.938;2022-07-23T05:34:58;8.57;;;5.15;;
41255;SDS011;26989;45.524;10.938;2022-07-23T05:37:25;8.60;;;4.63;;
41255;SDS011;26989;45.524;10.938;2022-07-23T05:39:52;11.90;;;5.05;;
41255;SDS011;26989;45.524;10.938;2022-07-23T05:42:19;10.90;;;6.28;;
41255;SDS011;26989;45.524;10.938;2022-07-23T05:44:46;13.80;;;7.60;;
41255;SDS011;26989;45.524;10.938;2022-07-23T05:47:13;16.70;;;8.45;;
41255;SDS011;26989;45.524;10.938;2022-07-23T05:49:40;7.30;;;5.78;;
41255;SDS011;26989;45.524;10.938;2022-07-23T05:52:07;12.13;;;6.75;;
41255;SDS011;26989;45.524;10.938;2022-07-23T05:54:34;12.55;;;5.63;;
41255;SDS011;26989;45.524;10.938;2022-07-23T05:57:02;10.13;;;5.45;;
41255;SDS011;26989;45.524;10.938;2022-07-23T05:59:29;7.90;;;5.38;;
41255;SDS011;26989;45.524;10.938;2022-07-23T06:01:57;9.35;;;5.22;;
41255;SDS011;26989;45.524;10.938;2022-07-23T06:04:24;10.20;;;5.38;;
41255;SDS011;26989;45.524;10.938;2022-07-23T06:06:51;8.98;;;4.78;;
41255;SDS011;26989;45.524;10.938;2022-07-23T06:09:18;11.15;;;5.45;;
41255;SDS011;26989;45.524;10.938;2022-07-23T06:11:45;10.45;;;5.40;;
41255;SDS011;26989;45.524;10.938;2022-07-23T06:14:12;14.05;;;5.88;;
41255;SDS011;26989;45.524;10.938;2022-07-23T06:16:39;8.60;;;5.50;;
41255;SDS011;26989;45.524;10.938;2022-07-23T06:19:05;26.77;;;10.88;;
41255;SDS011;26989;45.524;10.938;2022-07-23T06:21:32;9.05;;;6.20;;
41255;SDS011;26989;45.524;10.938;2022-07-23T06:24:14;11.68;;;6.15;;
41255;SDS011;26989;45.524;10.938;2022-07-23T06:26:41;9.75;;;6.25;;
41255;SDS011;26989;45.524;10.938;2022-07-23T06:29:08;8.30;;;6.07;;
41255;SDS011;26989;45.524;10.938;2022-07-23T06:31:35;8.52;;;6.60;;
41255;SDS011;26989;45.524;10.938;2022-07-23T06:34:02;9.65;;;6.90;;
41255;SDS011;26989;45.524;10.938;2022-07-23T06:36:29;11.02;;;7.07;;
41255;SDS011;26989;45.524;10.938;2022-07-23T06:38:56;9.23;;;7.20;;
41255;SDS011;26989;45.524;10.938;2022-07-23T06:41:23;9.68;;;6.22;;
41255;SDS011;26989;45.524;10.938;2022-07-23T06:43:50;13.00;;;6.65;;
41255;SDS011;26989;45.524;10.938;2022-07-23T06:46:17;14.25;;;7.15;;
41255;SDS011;26989;45.524;10.938;2022-07-23T06:48:44;14.73;;;7.07;;
41255;SDS011;26989;45.524;10.938;2022-07-23T06:51:11;15.90;;;7.13;;
41255;SDS011;26989;45.524;10.938;2022-07-23T06:53:37;10.10;;;6.63;;
41255;SDS011;26989;45.524;10.938;2022-07-23T06:56:04;12.02;;;7.15;;
41255;SDS011;26989;45.524;10.938;2022-07-23T06:58:31;13.90;;;8.18;;
41255;SDS011;26989;45.524;10.938;2022-07-23T07:00:59;11.20;;;7.25;;
41255;SDS011;26989;45.524;10.938;2022-07-23T07:03:25;8.60;;;6.65;;
41255;SDS011;26989;45.524;10.938;2022-07-23T07:05:52;9.88;;;7.38;;
41255;SDS011;26989;45.524;10.938;2022-07-23T07:08:20;11.43;;;7.07;;
41255;SDS011;26989;45.524;10.938;2022-07-23T07:10:46;11.57;;;7.22;;
41255;SDS011;26989;45.524;10.938;2022-07-23T07:13:13;15.50;;;7.53;;
41255;SDS011;26989;45.524;10.938;2022-07-23T07:15:40;11.90;;;7.10;;
41255;SDS011;26989;45.524;10.938;2022-07-23T07:18:07;12.63;;;7.00;;
41255;SDS011;26989;45.524;10.938;2022-07-23T07:20:34;10.45;;;7.15;;
41255;SDS011;26989;45.524;10.938;2022-07-23T07:23:01;12.68;;;6.18;;
41255;SDS011;26989;45.524;10.938;2022-07-23T07:25:28;12.65;;;7.00;;
41255;SDS011;26989;45.524;10.938;2022-07-23T07:27:56;7.28;;;6.20;;
41255;SDS011;26989;45.524;10.938;2022-07-23T07:30:23;13.80;;;8.23;;
41255;SDS011;26989;45.524;10.938;2022-07-23T07:32:49;9.27;;;6.57;;
41255;SDS011;26989;45.524;10.938;2022-07-23T07:35:22;9.50;;;6.32;;
41255;SDS011;26989;45.524;10.938;2022-07-23T07:37:49;10.25;;;6.63;;
41255;SDS011;26989;45.524;10.938;2022-07-23T07:40:16;8.02;;;6.35;;
41255;SDS011;26989;45.524;10.938;2022-07-23T07:42:46;11.00;;;6.45;;
41255;SDS011;26989;45.524;10.938;2022-07-23T07:45:19;15.25;;;10.77;;
41255;SDS011;26989;45.524;10.938;2022-07-23T07:47:47;10.73;;;6.68;;
41255;SDS011;26989;45.524;10.938;2022-07-23T07:50:14;8.50;;;5.93;;
41255;SDS011;26989;45.524;10.938;2022-07-23T07:52:41;9.25;;;6.38;;
41255;SDS011;26989;45.524;10.938;2022-07-23T07:55:09;7.63;;;6.40;;
41255;SDS011;26989;45.524;10.938;2022-07-23T07:57:37;16.13;;;7.07;;
41255;SDS011;26989;45.524;10.938;2022-07-23T08:00:05;9.50;;;6.30;;
41255;SDS011;26989;45.524;10.938;2022-07-23T08:02:43;8.68;;;6.25;;
41255;SDS011;26989;45.524;10.938;2022-07-23T08:05:12;13.32;;;6.63;;
41255;SDS011;26989;45.524;10.938;2022-07-23T08:07:39;9.82;;;6.22;;
41255;SDS011;26989;45.524;10.938;2022-07-23T08:10:07;12.55;;;5.82;;
41255;SDS011;26989;45.524;10.938;2022-07-23T08:12:43;9.93;;;6.25;;
41255;SDS011;26989;45.524;10.938;2022-07-23T08:15:15;9.55;;;7.20;;
41255;SDS011;26989;45.524;10.938;2022-07-23T08:17:43;11.52;;;7.43;;
41255;SDS011;26989;45.524;10.938;2022-07-23T08:20:11;9.88;;;6.80;;
41255;SDS011;26989;45.524;10.938;2022-07-23T08:22:43;16.23;;;10.45;;
41255;SDS011;26989;45.524;10.938;2022-07-23T08:25:15;10.57;;;6.82;;
41255;SDS011;26989;45.524;10.938;2022-07-23T08:27:45;11.43;;;6.15;;
41255;SDS011;26989;45.524;10.938;2022-07-23T08:30:13;12.60;;;6.85;;
41255;SDS011;26989;45.524;10.938;2022-07-23T08:35:23;10.32;;;6.75;;
41255;SDS011;26989;45.524;10.938;2022-07-23T08:37:51;12.93;;;8.05;;
41255;SDS011;26989;45.524;10.938;2022-07-23T08:40:18;28.98;;;21.45;;
41255;SDS011;26989;45.524;10.938;2022-07-23T08:42:49;14.85;;;7.55;;
41255;SDS011;26989;45.524;10.938;2022-07-23T08:45:17;11.65;;;7.75;;
41255;SDS011;26989;45.524;10.938;2022-07-23T08:47:53;10.38;;;7.70;;
41255;SDS011;26989;45.524;10.938;2022-07-23T08:50:23;10.82;;;7.78;;
41255;SDS011;26989;45.524;10.938;2022-07-23T08:52:51;8.48;;;7.25;;
41255;SDS011;26989;45.524;10.938;2022-07-23T08:55:20;12.00;;;8.20;;
41255;SDS011;26989;45.524;10.938;2022-07-23T08:57:48;10.90;;;7.82;;
41255;SDS011;26989;45.524;10.938;2022-07-23T09:00:17;12.65;;;9.02;;
41255;SDS011;26989;45.524;10.938;2022-07-23T09:02:45;13.02;;;9.68;;
41255;SDS011;26989;45.524;10.938;2022-07-23T09:05:13;11.57;;;9.68;;
41255;SDS011;26989;45.524;10.938;2022-07-23T09:10:30;19.90;;;15.20;;
41255;SDS011;26989;45.524;10.938;2022-07-23T09:13:22;17.50;;;12.68;;
41255;SDS011;26989;45.524;10.938;2022-07-23T09:15:56;17.65;;;12.80;;
41255;SDS011;26989;45.524;10.938;2022-07-23T09:18:29;16.60;;;11.75;;
41255;SDS011;26989;45.524;10.938;2022-07-23T09:21:07;16.92;;;12.43;;
41255;SDS011;26989;45.524;10.938;2022-07-23T09:23:39;16.52;;;13.63;;
41255;SDS011;26989;45.524;10.938;2022-07-23T09:29:22;16.58;;;14.35;;
41255;SDS011;26989;45.524;10.938;2022-07-23T09:31:58;15.65;;;14.15;;
41255;SDS011;26989;45.524;10.938;2022-07-23T09:34:29;15.57;;;13.93;;
41255;SDS011;26989;45.524;10.938;2022-07-23T09:37:11;15.85;;;14.00;;
41255;SDS011;26989;45.524;10.938;2022-07-23T09:39:40;17.17;;;15.00;;
41255;SDS011;26989;45.524;10.938;2022-07-23T09:44:46;19.75;;;15.55;;
41255;SDS011;26989;45.524;10.938;2022-07-23T09:47:14;17.13;;;15.00;;
41255;SDS011;26989;45.524;10.938;2022-07-23T09:52:32;19.25;;;15.98;;
41255;SDS011;26989;45.524;10.938;2022-07-23T09:55:02;19.35;;;17.25;;
41255;SDS011;26989;45.524;10.938;2022-07-23T09:57:31;19.57;;;15.00;;
41255;SDS011;26989;45.524;10.938;2022-07-23T10:00:00;20.02;;;14.82;;
41255;SDS011;26989;45.524;10.938;2022-07-23T10:02:32;17.77;;;14.98;;
41255;SDS011;26989;45.524;10.938;2022-07-23T10:04:59;16.52;;;14.80;;
41255;SDS011;26989;45.524;10.938;2022-07-23T10:07:28;16.55;;;13.80;;
41255;SDS011;26989;45.524;10.938;2022-07-23T10:10:00;20.33;;;13.27;;
41255;SDS011;26989;45.524;10.938;2022-07-23T10:12:28;14.85;;;12.57;;
41255;SDS011;26989;45.524;10.938;2022-07-23T10:14:58;16.15;;;12.30;;
41255;SDS011;26989;45.524;10.938;2022-07-23T10:17:29;14.68;;;11.50;;
41255;SDS011;26989;45.524;10.938;2022-07-23T10:22:24;15.48;;;11.18;;
41255;SDS011;26989;45.524;10.938;2022-07-23T10:33:12;15.65;;;11.63;;
41255;SDS011;26989;45.524;10.938;2022-07-23T10:41:33;11.77;;;10.07;;
41255;SDS011;26989;45.524;10.938;2022-07-23T10:46:59;14.77;;;10.10;;
41255;SDS011;26989;45.524;10.938;2022-07-23T10:49:31;12.00;;;8.98;;
41255;SDS011;26989;45.524;10.938;2022-07-23T10:54:46;11.10;;;8.90;;
41255;SDS011;26989;45.524;10.938;2022-07-23T10:57:21;10.02;;;8.70;;
41255;SDS011;26989;45.524;10.938;2022-07-23T11:00:23;10.35;;;7.85;;
41255;SDS011;26989;45.524;10.938;2022-07-23T11:02:46;7.70;;;6.40;;
41255;SDS011;26989;45.524;10.938;2022-07-23T11:05:18;9.07;;;7.10;;
41255;SDS011;26989;45.524;10.938;2022-07-23T11:34:29;6.72;;;4.90;;
41255;SDS011;26989;45.524;10.938;2022-07-23T11:37:02;7.88;;;5.10;;
41255;SDS011;26989;45.524;10.938;2022-07-23T11:39:30;6.00;;;4.80;;
41255;SDS011;26989;45.524;10.938;2022-07-23T11:41:58;6.78;;;4.35;;
41255;SDS011;26989;45.524;10.938;2022-07-23T11:47:01;8.45;;;5.28;;
41255;SDS011;26989;45.524;10.938;2022-07-23T11:49:31;6.65;;;5.10;;
41255;SDS011;26989;45.524;10.938;2022-07-23T11:54:36;6.97;;;4.93;;
41255;SDS011;26989;45.524;10.938;2022-07-23T11:57:13;9.63;;;5.43;;
41255;SDS011;26989;45.524;10.938;2022-07-23T11:59:41;6.82;;;6.10;;
41255;SDS011;26989;45.524;10.938;2022-07-23T12:02:09;7.10;;;6.00;;
41255;SDS011;26989;45.524;10.938;2022-07-23T12:10:01;12.43;;;7.72;;
41255;SDS011;26989;45.524;10.938;2022-07-23T12:12:35;11.02;;;7.55;;
41255;SDS011;26989;45.524;10.938;2022-07-23T12:15:07;10.73;;;7.45;;
41255;SDS011;26989;45.524;10.938;2022-07-23T12:17:36;13.50;;;7.55;;
41255;SDS011;26989;45.524;10.938;2022-07-23T12:20:05;10.52;;;6.93;;
41255;SDS011;26989;45.524;10.938;2022-07-23T12:22:38;12.43;;;7.55;;
41255;SDS011;26989;45.524;10.938;2022-07-23T12:25:11;10.23;;;7.00;;
41255;SDS011;26989;45.524;10.938;2022-07-23T12:30:15;10.35;;;6.15;;
41255;SDS011;26989;45.524;10.938;2022-07-23T12:32:48;9.70;;;6.53;;
41255;SDS011;26989;45.524;10.938;2022-07-23T12:35:16;8.45;;;6.63;;
41255;SDS011;26989;45.524;10.938;2022-07-23T12:37:44;12.10;;;6.97;;
41255;SDS011;26989;45.524;10.938;2022-07-23T12:40:30;10.55;;;6.38;;
41255;SDS011;26989;45.524;10.938;2022-07-23T12:43:06;9.25;;;6.93;;
41255;SDS011;26989;45.524;10.938;2022-07-23T12:48:16;10.45;;;6.38;;
41255;SDS011;26989;45.524;10.938;2022-07-23T12:50:58;10.45;;;6.82;;
41255;SDS011;26989;45.524;10.938;2022-07-23T12:53:26;10.52;;;6.85;;
41255;SDS011;26989;45.524;10.938;2022-07-23T12:56:04;7.97;;;6.13;;
41255;SDS011;26989;45.524;10.938;2022-07-23T12:58:57;12.35;;;6.30;;
41255;SDS011;26989;45.524;10.938;2022-07-23T13:01:33;12.85;;;6.60;;
41255;SDS011;26989;45.524;10.938;2022-07-23T13:09:21;10.05;;;6.85;;
41255;SDS011;26989;45.524;10.938;2022-07-23T13:12:09;12.27;;;6.60;;
41255;SDS011;26989;45.524;10.938;2022-07-23T13:14:37;10.95;;;6.72;;
41255;SDS011;26989;45.524;10.938;2022-07-23T13:17:04;11.15;;;6.78;;
41255;SDS011;26989;45.524;10.938;2022-07-23T13:19:32;9.48;;;7.07;;
41255;SDS011;26989;45.524;10.938;2022-07-23T13:22:00;11.45;;;7.20;;
41255;SDS011;26989;45.524;10.938;2022-07-23T13:24:47;10.23;;;6.65;;
41255;SDS011;26989;45.524;10.938;2022-07-23T13:27:15;8.50;;;6.60;;
41255;SDS011;26989;45.524;10.938;2022-07-23T13:29:42;12.20;;;6.95;;
41255;SDS011;26989;45.524;10.938;2022-07-23T13:32:11;9.10;;;6.60;;
41255;SDS011;26989;45.524;10.938;2022-07-23T13:34:39;9.00;;;7.07;;
41255;SDS011;26989;45.524;10.938;2022-07-23T13:37:07;10.73;;;6.22;;
41255;SDS011;26989;45.524;10.938;2022-07-23T13:39:34;9.15;;;6.93;;
41255;SDS011;26989;45.524;10.938;2022-07-23T13:42:04;9.50;;;6.87;;
41255;SDS011;26989;45.524;10.938;2022-07-23T13:44:33;9.65;;;6.70;;
41255;SDS011;26989;45.524;10.938;2022-07-23T13:47:01;13.00;;;7.15;;
41255;SDS011;26989;45.524;10.938;2022-07-23T13:49:29;10.40;;;6.70;;
41255;SDS011;26989;45.524;10.938;2022-07-23T13:51:56;9.18;;;6.70;;
41255;SDS011;26989;45.524;10.938;2022-07-23T13:54:24;10.93;;;7.40;;
41255;SDS011;26989;45.524;10.938;2022-07-23T13:56:53;9.75;;;6.82;;
41255;SDS011;26989;45.524;10.938;2022-07-23T13:59:21;7.28;;;6.57;;
41255;SDS011;26989;45.524;10.938;2022-07-23T14:01:51;11.25;;;7.68;;
41255;SDS011;26989;45.524;10.938;2022-07-23T14:04:39;8.30;;;6.78;;
41255;SDS011;26989;45.524;10.938;2022-07-23T14:07:07;8.20;;;6.90;;
41255;SDS011;26989;45.524;10.938;2022-07-23T14:09:34;8.85;;;6.82;;
41255;SDS011;26989;45.524;10.938;2022-07-23T14:12:02;8.52;;;6.45;;
41255;SDS011;26989;45.524;10.938;2022-07-23T14:14:29;8.05;;;6.53;;
41255;SDS011;26989;45.524;10.938;2022-07-23T14:16:56;11.07;;;6.50;;
41255;SDS011;26989;45.524;10.938;2022-07-23T14:19:23;8.85;;;6.65;;
41255;SDS011;26989;45.524;10.938;2022-07-23T14:21:50;8.82;;;6.25;;
41255;SDS011;26989;45.524;10.938;2022-07-23T14:24:17;9.23;;;6.15;;
41255;SDS011;26989;45.524;10.938;2022-07-23T14:26:47;16.35;;;6.72;;
41255;SDS011;26989;45.524;10.938;2022-07-23T14:29:14;8.32;;;6.18;;
41255;SDS011;26989;45.524;10.938;2022-07-23T14:31:42;18.73;;;9.52;;
41255;SDS011;26989;45.524;10.938;2022-07-23T14:34:09;11.30;;;7.20;;
41255;SDS011;26989;45.524;10.938;2022-07-23T14:36:37;9.18;;;6.05;;
41255;SDS011;26989;45.524;10.938;2022-07-23T14:39:04;9.45;;;7.20;;
41255;SDS011;26989;45.524;10.938;2022-07-23T14:41:35;9.63;;;7.05;;
41255;SDS011;26989;45.524;10.938;2022-07-23T14:44:02;7.03;;;5.85;;
41255;SDS011;26989;45.524;10.938;2022-07-23T14:46:30;11.27;;;6.50;;
41255;SDS011;26989;45.524;10.938;2022-07-23T14:48:58;14.05;;;7.25;;
41255;SDS011;26989;45.524;10.938;2022-07-23T14:51:26;8.38;;;6.10;;
41255;SDS011;26989;45.524;10.938;2022-07-23T14:53:54;12.20;;;6.90;;
41255;SDS011;26989;45.524;10.938;2022-07-23T14:56:21;8.23;;;7.10;;
41255;SDS011;26989;45.524;10.938;2022-07-23T14:58:48;10.77;;;6.70;;
41255;SDS011;26989;45.524;10.938;2022-07-23T15:01:15;12.95;;;6.65;;
41255;SDS011;26989;45.524;10.938;2022-07-23T15:03:42;9.88;;;6.38;;
41255;SDS011;26989;45.524;10.938;2022-07-23T15:06:09;10.02;;;7.85;;
41255;SDS011;26989;45.524;10.938;2022-07-23T15:08:37;9.20;;;7.00;;
41255;SDS011;26989;45.524;10.938;2022-07-23T15:11:04;10.60;;;6.75;;
41255;SDS011;26989;45.524;10.938;2022-07-23T15:13:33;10.40;;;7.05;;
41255;SDS011;26989;45.524;10.938;2022-07-23T15:15:59;8.23;;;6.93;;
41255;SDS011;26989;45.524;10.938;2022-07-23T15:18:28;14.25;;;7.03;;
41255;SDS011;26989;45.524;10.938;2022-07-23T15:20:55;7.95;;;6.07;;
41255;SDS011;26989;45.524;10.938;2022-07-23T15:23:23;12.68;;;6.65;;
41255;SDS011;26989;45.524;10.938;2022-07-23T15:25:51;14.52;;;6.53;;
41255;SDS011;26989;45.524;10.938;2022-07-23T15:28:18;9.95;;;5.18;;
41255;SDS011;26989;45.524;10.938;2022-07-23T15:30:47;9.88;;;5.10;;
41255;SDS011;26989;45.524;10.938;2022-07-23T15:33:15;7.95;;;5.30;;
41255;SDS011;26989;45.524;10.938;2022-07-23T15:35:46;7.53;;;5.10;;
41255;SDS011;26989;45.524;10.938;2022-07-23T15:38:14;9.13;;;5.85;;
41255;SDS011;26989;45.524;10.938;2022-07-23T15:40:50;7.53;;;5.93;;
41255;SDS011;26989;45.524;10.938;2022-07-23T15:43:18;8.82;;;6.00;;
41255;SDS011;26989;45.524;10.938;2022-07-23T15:45:45;8.95;;;6.10;;
41255;SDS011;26989;45.524;10.938;2022-07-23T15:48:12;7.95;;;6.00;;
41255;SDS011;26989;45.524;10.938;2022-07-23T15:50:39;8.00;;;6.00;;
41255;SDS011;26989;45.524;10.938;2022-07-23T15:53:11;10.68;;;6.72;;
41255;SDS011;26989;45.524;10.938;2022-07-23T15:55:41;7.03;;;6.15;;
41255;SDS011;26989;45.524;10.938;2022-07-23T15:58:12;7.80;;;6.00;;